Time;durP1;ratioP1;P1;durP2;ratioP2;P2;SDS_P1;SDS_P2;PMS_P1;PMS_P2;Temp;Humidity;BMP_temperature;BMP_pressure;BME280_temperature;BME280_humidity;BME280_pressure;Samples;Min_cycle;Max_cycle;Signal;HPM_P1;HPM_P2
2023/03/04 00:01:01;;;;;;;13.18;2.80;;;;;;;;;;5125646;27;20030;-68
2023/03/04 00:03:27;;;;;;;12.27;2.03;;;;;;;;;;5130257;27;20446;-68
2023/03/04 00:05:53;;;;;;;13.63;2.30;;;;;;;;;;5131835;27;20035;-68
2023/03/04 00:08:19;;;;;;;11.30;2.13;;;;;;;;;;5119361;27;20097;-68
2023/03/04 00:10:45;;;;;;;18.52;3.90;;;;;;;;;;5130608;27;20039;-68
2023/03/04 00:13:11;;;;;;;15.10;2.25;;;;;;;;;;5123203;27;20050;-67
2023/03/04 00:15:37;;;;;;;14.23;2.15;;;;;;;;;;5130612;27;20047;-68
2023/03/04 00:18:03;;;;;;;7.65;1.73;;;;;;;;;;5121584;27;20183;-68
2023/03/04 00:20:29;;;;;;;16.33;2.30;;;;;;;;;;5130161;27;20071;-68
2023/03/04 00:22:55;;;;;;;14.82;2.13;;;;;;;;;;5112358;27;20476;-68
2023/03/04 00:25:21;;;;;;;14.57;2.65;;;;;;;;;;5111639;28;20036;-68
2023/03/04 00:27:47;;;;;;;13.80;2.20;;;;;;;;;;5131663;27;20036;-68
2023/03/04 00:30:13;;;;;;;13.95;2.00;;;;;;;;;;5130512;27;20373;-68
2023/03/04 00:32:39;;;;;;;10.18;1.70;;;;;;;;;;5134182;27;20488;-68
2023/03/04 00:35:06;;;;;;;8.55;1.95;;;;;;;;;;5126852;27;20082;-68
2023/03/04 00:37:32;;;;;;;12.95;2.35;;;;;;;;;;5132121;27;20031;-68
2023/03/04 00:39:58;;;;;;;14.55;2.28;;;;;;;;;;5113440;27;20041;-68
2023/03/04 00:42:24;;;;;;;13.63;2.45;;;;;;;;;;5118591;27;20037;-67
2023/03/04 00:44:50;;;;;;;8.75;2.05;;;;;;;;;;5106446;27;20035;-68
2023/03/04 00:47:17;;;;;;;12.02;2.33;;;;;;;;;;5127446;27;20067;-68
2023/03/04 00:49:43;;;;;;;13.13;2.83;;;;;;;;;;5132121;27;20052;-68
2023/03/04 00:52:09;;;;;;;14.02;2.60;;;;;;;;;;5113701;27;20131;-68
2023/03/04 00:54:35;;;;;;;18.33;2.47;;;;;;;;;;5128835;27;20039;-68
2023/03/04 00:57:01;;;;;;;16.92;2.25;;;;;;;;;;5124551;27;20114;-69
2023/03/04 00:59:27;;;;;;;14.73;2.72;;;;;;;;;;5129855;27;20046;-68
2023/03/04 01:01:53;;;;;;;9.30;2.08;;;;;;;;;;5122920;27;20043;-68
2023/03/04 01:04:19;;;;;;;15.43;2.50;;;;;;;;;;5130671;27;20050;-68
2023/03/04 01:06:45;;;;;;;9.48;1.88;;;;;;;;;;5131772;27;20386;-68
2023/03/04 01:09:11;;;;;;;13.20;1.80;;;;;;;;;;5133508;27;20031;-68
2023/03/04 01:11:37;;;;;;;13.15;2.03;;;;;;;;;;5131766;27;20031;-68
2023/03/04 01:14:03;;;;;;;16.83;2.40;;;;;;;;;;5118483;27;20037;-68
2023/03/04 01:16:29;;;;;;;14.48;3.22;;;;;;;;;;5131704;27;20043;-68
2023/03/04 01:18:55;;;;;;;11.20;2.80;;;;;;;;;;5128325;27;20046;-68
2023/03/04 01:21:21;;;;;;;10.18;2.63;;;;;;;;;;5110393;27;20090;-68
2023/03/04 01:23:47;;;;;;;12.55;2.60;;;;;;;;;;5127613;27;20095;-68
2023/03/04 01:26:13;;;;;;;9.00;2.20;;;;;;;;;;5127299;27;20031;-68
2023/03/04 01:28:39;;;;;;;15.60;2.45;;;;;;;;;;5131729;27;20058;-68
2023/03/04 01:31:05;;;;;;;13.25;2.30;;;;;;;;;;5127015;27;20041;-68
2023/03/04 01:33:31;;;;;;;11.20;2.03;;;;;;;;;;5124642;28;20454;-68
2023/03/04 01:35:57;;;;;;;19.48;3.08;;;;;;;;;;5110596;27;20047;-68
2023/03/04 01:38:23;;;;;;;6.35;2.05;;;;;;;;;;5128270;27;20081;-68
2023/03/04 01:40:50;;;;;;;12.60;2.17;;;;;;;;;;5130767;27;20110;-68
2023/03/04 01:43:24;;;;;;;11.77;1.85;;;;;;;;;;5117564;27;20068;-68
2023/03/04 01:45:51;;;;;;;19.13;2.58;;;;;;;;;;5123178;27;20031;-68
2023/03/04 01:48:19;;;;;;;13.52;2.33;;;;;;;;;;5106679;28;20484;-68
2023/03/04 01:50:45;;;;;;;10.35;1.80;;;;;;;;;;5130958;27;20401;-68
2023/03/04 01:53:17;;;;;;;18.45;2.60;;;;;;;;;;5137876;27;20429;-68
2023/03/04 01:55:43;;;;;;;14.32;2.28;;;;;;;;;;5130089;27;20164;-68
2023/03/04 01:58:12;;;;;;;10.80;2.17;;;;;;;;;;5118885;27;20035;-68
2023/03/04 02:00:39;;;;;;;16.25;2.42;;;;;;;;;;5132944;27;20068;-68
2023/03/04 02:03:06;;;;;;;9.98;2.17;;;;;;;;;;5106087;27;20555;-68
2023/03/04 02:05:33;;;;;;;14.45;2.20;;;;;;;;;;5118476;27;20050;-68
2023/03/04 02:08:00;;;;;;;11.50;1.90;;;;;;;;;;5137601;27;20042;-68
2023/03/04 02:10:26;;;;;;;16.85;2.65;;;;;;;;;;5137870;27;20071;-68
2023/03/04 02:12:53;;;;;;;8.93;1.55;;;;;;;;;;5117637;27;20154;-68
2023/03/04 02:15:19;;;;;;;9.63;1.92;;;;;;;;;;5135155;27;20043;-68
2023/03/04 02:17:45;;;;;;;11.52;2.30;;;;;;;;;;5133785;27;20031;-68
2023/03/04 02:20:20;;;;;;;10.48;1.85;;;;;;;;;;5142191;27;20117;-68
2023/03/04 02:22:52;;;;;;;12.63;1.98;;;;;;;;;;5138062;27;20035;-68
2023/03/04 02:25:21;;;;;;;17.15;2.28;;;;;;;;;;5119441;27;20548;-68
2023/03/04 02:27:47;;;;;;;7.20;1.90;;;;;;;;;;5135564;27;20035;-68
2023/03/04 02:30:13;;;;;;;10.93;2.13;;;;;;;;;;5117449;27;20092;-68
2023/03/04 02:32:39;;;;;;;14.27;2.22;;;;;;;;;;5130842;27;20516;-67
2023/03/04 02:35:06;;;;;;;9.75;1.90;;;;;;;;;;5138217;27;20518;-68
2023/03/04 02:37:32;;;;;;;17.13;2.38;;;;;;;;;;5122599;27;20040;-68
2023/03/04 02:39:58;;;;;;;12.25;1.80;;;;;;;;;;5115398;27;20113;-68
2023/03/04 02:42:24;;;;;;;11.48;1.95;;;;;;;;;;5136200;27;20031;-68
2023/03/04 02:44:59;;;;;;;12.93;2.28;;;;;;;;;;5116802;27;20054;-68
2023/03/04 02:47:25;;;;;;;13.75;2.30;;;;;;;;;;5132074;27;20039;-68
2023/03/04 02:49:51;;;;;;;9.95;2.05;;;;;;;;;;5130299;27;20496;-68
2023/03/04 02:52:18;;;;;;;12.30;2.17;;;;;;;;;;5132541;27;20035;-68
2023/03/04 02:54:44;;;;;;;12.77;2.28;;;;;;;;;;5125279;27;20035;-68
2023/03/04 02:57:11;;;;;;;8.25;1.65;;;;;;;;;;5113706;27;20036;-68
2023/03/04 02:59:38;;;;;;;10.75;2.15;;;;;;;;;;5132524;27;20071;-68
2023/03/04 03:02:05;;;;;;;10.27;1.90;;;;;;;;;;5129120;27;20038;-68
2023/03/04 03:04:31;;;;;;;11.05;2.03;;;;;;;;;;5130901;27;20041;-68
2023/03/04 03:06:57;;;;;;;9.63;2.08;;;;;;;;;;5113191;27;21173;-68
2023/03/04 03:09:23;;;;;;;12.13;1.90;;;;;;;;;;5128875;27;20046;-68
2023/03/04 03:11:49;;;;;;;11.80;2.10;;;;;;;;;;5130529;27;20046;-68
2023/03/04 03:14:15;;;;;;;9.00;2.10;;;;;;;;;;5130713;27;20035;-68
2023/03/04 03:16:42;;;;;;;7.57;2.10;;;;;;;;;;5129883;27;20131;-68
2023/03/04 03:19:08;;;;;;;13.45;2.03;;;;;;;;;;5129121;27;20043;-68
2023/03/04 03:21:34;;;;;;;9.45;1.77;;;;;;;;;;5130536;27;20557;-68
2023/03/04 03:24:00;;;;;;;14.90;2.45;;;;;;;;;;5128796;27;20035;-68
2023/03/04 03:26:25;;;;;;;12.02;2.42;;;;;;;;;;5129018;27;20031;-68
2023/03/04 03:28:52;;;;;;;10.20;2.00;;;;;;;;;;5127687;27;20044;-68
2023/03/04 03:31:18;;;;;;;9.85;1.95;;;;;;;;;;5128385;27;20031;-68
2023/03/04 03:33:44;;;;;;;10.23;2.30;;;;;;;;;;5130480;27;20436;-68
2023/03/04 03:36:11;;;;;;;12.93;1.95;;;;;;;;;;5130566;27;20027;-68
2023/03/04 03:38:38;;;;;;;13.57;1.85;;;;;;;;;;5129659;27;20377;-68
2023/03/04 03:41:04;;;;;;;9.00;2.10;;;;;;;;;;5122862;27;20031;-68
2023/03/04 03:43:30;;;;;;;13.68;1.73;;;;;;;;;;5132274;27;20031;-68
2023/03/04 03:45:56;;;;;;;8.88;1.55;;;;;;;;;;5124688;27;20042;-68
2023/03/04 03:48:22;;;;;;;9.82;1.83;;;;;;;;;;5132766;27;20031;-68
2023/03/04 03:50:48;;;;;;;8.50;2.22;;;;;;;;;;5128802;27;20092;-68
2023/03/04 03:53:14;;;;;;;12.60;2.00;;;;;;;;;;5133155;27;20400;-68
2023/03/04 03:55:40;;;;;;;8.45;1.85;;;;;;;;;;5132380;27;20050;-68
2023/03/04 03:58:06;;;;;;;12.35;2.58;;;;;;;;;;5121023;27;20434;-68
2023/03/04 04:00:32;;;;;;;11.07;1.75;;;;;;;;;;5133139;27;20122;-68
2023/03/04 04:02:59;;;;;;;9.98;2.05;;;;;;;;;;5127391;27;20138;-68
2023/03/04 04:05:25;;;;;;;9.93;2.13;;;;;;;;;;5129520;27;20118;-68
2023/03/04 04:07:51;;;;;;;13.75;1.85;;;;;;;;;;5124387;27;20527;-68
2023/03/04 04:10:17;;;;;;;8.10;2.00;;;;;;;;;;5118962;27;20043;-68
2023/03/04 04:12:44;;;;;;;8.90;1.92;;;;;;;;;;5109328;27;20040;-68
2023/03/04 04:15:12;;;;;;;13.13;2.55;;;;;;;;;;5132126;27;20035;-68
2023/03/04 04:17:39;;;;;;;10.23;1.80;;;;;;;;;;5133925;27;20039;-68
2023/03/04 04:20:06;;;;;;;8.25;1.60;;;;;;;;;;5109780;27;20039;-68
2023/03/04 04:22:32;;;;;;;15.90;2.90;;;;;;;;;;5132409;27;20063;-68
2023/03/04 04:24:58;;;;;;;9.98;1.80;;;;;;;;;;5130847;27;20122;-68
2023/03/04 04:27:24;;;;;;;12.02;2.83;;;;;;;;;;5132542;27;20465;-68
2023/03/04 04:29:50;;;;;;;12.43;1.88;;;;;;;;;;5133613;27;20122;-68
2023/03/04 04:32:16;;;;;;;11.30;2.15;;;;;;;;;;5132460;27;20069;-68
2023/03/04 04:34:42;;;;;;;11.45;2.22;;;;;;;;;;5130478;27;20128;-68
2023/03/04 04:37:08;;;;;;;12.82;2.08;;;;;;;;;;5127664;27;20038;-71
2023/03/04 04:39:34;;;;;;;11.38;2.20;;;;;;;;;;5134782;22;20520;-65
2023/03/04 04:42:00;;;;;;;14.23;1.90;;;;;;;;;;5108552;28;20046;-65
2023/03/04 04:44:26;;;;;;;10.40;2.17;;;;;;;;;;5112954;28;20039;-65
2023/03/04 04:46:52;;;;;;;11.52;2.42;;;;;;;;;;5112892;28;20042;-65
2023/03/04 04:49:18;;;;;;;7.57;1.90;;;;;;;;;;5106466;28;20039;-65
2023/03/04 04:51:45;;;;;;;10.23;1.65;;;;;;;;;;5103054;28;20416;-65
2023/03/04 04:54:11;;;;;;;10.27;2.38;;;;;;;;;;5109937;28;20043;-65
2023/03/04 04:56:37;;;;;;;13.30;2.45;;;;;;;;;;5104221;28;20115;-65
2023/03/04 04:59:06;;;;;;;14.15;2.58;;;;;;;;;;5081086;28;20123;-65
2023/03/04 05:01:32;;;;;;;11.13;2.67;;;;;;;;;;5108711;28;20066;-65
2023/03/04 05:03:58;;;;;;;8.40;2.28;;;;;;;;;;5107797;28;20144;-65
2023/03/04 05:06:24;;;;;;;9.15;2.03;;;;;;;;;;5103711;28;20036;-65
2023/03/04 05:08:50;;;;;;;12.73;1.98;;;;;;;;;;5091817;28;20032;-65
2023/03/04 05:11:18;;;;;;;14.93;3.00;;;;;;;;;;5098099;28;20497;-65
2023/03/04 05:13:44;;;;;;;14.80;2.28;;;;;;;;;;5105922;28;20039;-65
2023/03/04 05:16:10;;;;;;;8.40;1.90;;;;;;;;;;5082129;28;20040;-65
2023/03/04 05:18:36;;;;;;;12.27;2.65;;;;;;;;;;5108282;28;20035;-65
2023/03/04 05:21:03;;;;;;;13.70;2.60;;;;;;;;;;5109356;28;21598;-65
2023/03/04 05:23:30;;;;;;;10.60;1.85;;;;;;;;;;5095708;28;20573;-65
2023/03/04 05:25:56;;;;;;;12.52;2.60;;;;;;;;;;5081157;28;20028;-65
2023/03/04 05:28:23;;;;;;;11.57;1.90;;;;;;;;;;5101796;28;20176;-65
2023/03/04 05:30:49;;;;;;;9.43;2.00;;;;;;;;;;5109930;28;20039;-65
2023/03/04 05:33:16;;;;;;;7.78;1.58;;;;;;;;;;5104242;28;20034;-65
2023/03/04 05:35:42;;;;;;;7.95;1.92;;;;;;;;;;5098942;28;20047;-65
2023/03/04 05:38:09;;;;;;;18.15;2.22;;;;;;;;;;5080221;28;20031;-65
2023/03/04 05:40:36;;;;;;;11.55;2.08;;;;;;;;;;5109572;28;20044;-65
2023/03/04 05:43:02;;;;;;;11.13;1.92;;;;;;;;;;5101383;28;20046;-65
2023/03/04 05:45:28;;;;;;;12.30;2.30;;;;;;;;;;5086438;28;20036;-65
2023/03/04 05:47:54;;;;;;;10.60;2.50;;;;;;;;;;5109044;28;20088;-65
2023/03/04 05:50:20;;;;;;;16.98;2.47;;;;;;;;;;5109986;28;20040;-65
2023/03/04 05:52:46;;;;;;;14.15;2.13;;;;;;;;;;5088727;28;20409;-65
2023/03/04 05:55:12;;;;;;;12.43;1.90;;;;;;;;;;5100060;28;20473;-65
2023/03/04 05:57:38;;;;;;;10.30;2.05;;;;;;;;;;5098316;28;20528;-65
2023/03/04 06:00:08;;;;;;;11.90;2.15;;;;;;;;;;5108052;28;20040;-65
2023/03/04 06:02:34;;;;;;;8.48;2.20;;;;;;;;;;5102551;28;20044;-65
2023/03/04 06:05:00;;;;;;;10.18;1.92;;;;;;;;;;5102677;28;20456;-65
2023/03/04 06:07:26;;;;;;;10.07;1.85;;;;;;;;;;5109408;28;20123;-65
2023/03/04 06:09:52;;;;;;;14.30;2.05;;;;;;;;;;5108088;28;20100;-65
2023/03/04 06:12:18;;;;;;;8.68;2.05;;;;;;;;;;5105760;28;20032;-65
2023/03/04 06:14:44;;;;;;;15.20;2.47;;;;;;;;;;5104202;28;20027;-65
2023/03/04 06:17:10;;;;;;;7.70;2.15;;;;;;;;;;5109332;28;20031;-65
2023/03/04 06:19:36;;;;;;;11.55;2.10;;;;;;;;;;5103015;28;20050;-65
2023/03/04 06:22:03;;;;;;;11.15;2.15;;;;;;;;;;5093657;28;20177;-65
2023/03/04 06:24:29;;;;;;;11.63;2.20;;;;;;;;;;5082630;28;20040;-65
2023/03/04 06:26:55;;;;;;;3.78;1.75;;;;;;;;;;5094950;28;20092;-65
2023/03/04 06:29:21;;;;;;;12.68;2.42;;;;;;;;;;5099505;28;20555;-65
2023/03/04 06:31:47;;;;;;;10.85;1.80;;;;;;;;;;5103156;28;20040;-64
2023/03/04 06:34:13;;;;;;;11.02;2.05;;;;;;;;;;5108088;28;20058;-65
2023/03/04 06:36:39;;;;;;;9.02;1.80;;;;;;;;;;5115512;28;20712;-65
2023/03/04 06:39:06;;;;;;;12.18;2.35;;;;;;;;;;5111141;28;20115;-65
2023/03/04 06:41:32;;;;;;;11.38;1.95;;;;;;;;;;5106927;28;20039;-65
2023/03/04 06:43:58;;;;;;;13.40;1.98;;;;;;;;;;5111893;28;20054;-65
2023/03/04 06:46:24;;;;;;;7.57;1.55;;;;;;;;;;5114131;28;20525;-65
2023/03/04 06:48:50;;;;;;;11.93;2.38;;;;;;;;;;5106977;28;20031;-65
2023/03/04 06:51:16;;;;;;;8.65;1.63;;;;;;;;;;5103383;28;20035;-65
2023/03/04 06:53:42;;;;;;;9.07;1.77;;;;;;;;;;5108271;28;20064;-65
2023/03/04 06:56:09;;;;;;;12.93;2.08;;;;;;;;;;5099921;28;20153;-65
2023/03/04 06:58:35;;;;;;;11.07;1.98;;;;;;;;;;5102389;28;20032;-65
2023/03/04 07:01:12;;;;;;;6.50;1.77;;;;;;;;;;5104253;28;20508;-65
2023/03/04 07:03:38;;;;;;;11.73;2.25;;;;;;;;;;5109342;28;20089;-65
2023/03/04 07:06:04;;;;;;;12.00;2.08;;;;;;;;;;5106050;28;20513;-65
2023/03/04 07:08:30;;;;;;;9.27;2.63;;;;;;;;;;5097197;28;20059;-66
2023/03/04 07:10:56;;;;;;;9.93;1.90;;;;;;;;;;5105859;28;20086;-66
2023/03/04 07:13:22;;;;;;;8.32;1.60;;;;;;;;;;5105370;28;20077;-65
2023/03/04 07:15:48;;;;;;;5.63;1.45;;;;;;;;;;5106597;28;20512;-65
2023/03/04 07:18:14;;;;;;;5.55;1.50;;;;;;;;;;5093308;28;20065;-65
2023/03/04 07:20:40;;;;;;;5.60;1.60;;;;;;;;;;5102990;28;20386;-65
2023/03/04 07:23:06;;;;;;;4.88;1.50;;;;;;;;;;5086514;28;20052;-65
2023/03/04 07:25:32;;;;;;;7.57;1.88;;;;;;;;;;5109161;28;20049;-66
2023/03/04 07:27:57;;;;;;;10.88;1.98;;;;;;;;;;5110091;28;20447;-65
2023/03/04 07:30:24;;;;;;;10.07;2.50;;;;;;;;;;5088383;28;20035;-65
2023/03/04 07:32:49;;;;;;;8.07;2.63;;;;;;;;;;5111125;28;20417;-66
2023/03/04 07:35:16;;;;;;;4.45;1.92;;;;;;;;;;5105535;28;20028;-66
2023/03/04 07:37:42;;;;;;;5.90;2.00;;;;;;;;;;5105235;28;20104;-66
2023/03/04 07:40:08;;;;;;;7.53;1.50;;;;;;;;;;5089679;28;20036;-66
2023/03/04 07:42:34;;;;;;;11.63;1.83;;;;;;;;;;5100604;28;20500;-65
2023/03/04 07:45:00;;;;;;;9.82;1.90;;;;;;;;;;5086808;28;20074;-65
2023/03/04 07:47:27;;;;;;;8.98;1.75;;;;;;;;;;5113795;28;20499;-65
2023/03/04 07:49:53;;;;;;;7.95;1.80;;;;;;;;;;5109211;28;20516;-66
2023/03/04 07:52:19;;;;;;;6.40;1.55;;;;;;;;;;5107130;28;20036;-66
2023/03/04 07:54:45;;;;;;;11.18;2.20;;;;;;;;;;5106407;28;20039;-65
2023/03/04 07:57:11;;;;;;;6.93;1.42;;;;;;;;;;5107285;28;20059;-66
2023/03/04 07:59:37;;;;;;;6.88;2.05;;;;;;;;;;5103700;28;20078;-66
2023/03/04 08:02:03;;;;;;;6.22;1.60;;;;;;;;;;5109928;28;20115;-66
2023/03/04 08:04:29;;;;;;;7.07;1.80;;;;;;;;;;5108343;28;20073;-66
2023/03/04 08:06:55;;;;;;;6.13;1.85;;;;;;;;;;5099306;28;20044;-66
2023/03/04 08:09:21;;;;;;;5.65;1.35;;;;;;;;;;5106552;28;20397;-65
2023/03/04 08:11:47;;;;;;;4.68;1.30;;;;;;;;;;5103755;28;20050;-66
2023/03/04 08:14:13;;;;;;;6.45;1.30;;;;;;;;;;5106368;28;20549;-65
2023/03/04 08:16:39;;;;;;;6.60;1.40;;;;;;;;;;5109549;28;20500;-65
2023/03/04 08:19:06;;;;;;;6.75;1.38;;;;;;;;;;5103506;28;20191;-65
2023/03/04 08:21:32;;;;;;;9.95;1.50;;;;;;;;;;5092003;28;20043;-66
2023/03/04 08:24:01;;;;;;;7.38;1.50;;;;;;;;;;5100620;28;20097;-65
2023/03/04 08:26:32;;;;;;;8.77;1.60;;;;;;;;;;5106797;28;20433;-65
2023/03/04 08:29:00;;;;;;;7.82;1.50;;;;;;;;;;5107302;28;20043;-65
2023/03/04 08:31:26;;;;;;;3.25;1.08;;;;;;;;;;5099596;28;20400;-65
2023/03/04 08:33:52;;;;;;;3.00;1.10;;;;;;;;;;5083579;28;20039;-65
2023/03/04 08:36:18;;;;;;;7.43;1.73;;;;;;;;;;5097616;28;20039;-66
2023/03/04 08:38:44;;;;;;;4.20;1.25;;;;;;;;;;5088154;28;20046;-65
2023/03/04 08:41:10;;;;;;;6.03;1.00;;;;;;;;;;5105566;28;20115;-65
2023/03/04 08:43:36;;;;;;;5.07;1.30;;;;;;;;;;5106192;28;20039;-65
2023/03/04 08:46:03;;;;;;;3.97;1.10;;;;;;;;;;5099021;28;20039;-64
2023/03/04 08:48:29;;;;;;;4.78;1.10;;;;;;;;;;5108551;28;20114;-63
2023/03/04 08:50:55;;;;;;;5.95;1.60;;;;;;;;;;5108825;28;20039;-63
2023/03/04 08:53:21;;;;;;;9.65;1.27;;;;;;;;;;5099969;28;20080;-64
2023/03/04 08:55:47;;;;;;;12.40;1.50;;;;;;;;;;5107025;28;20092;-63
2023/03/04 08:58:14;;;;;;;6.68;1.40;;;;;;;;;;5098735;28;20531;-63
2023/03/04 09:00:42;;;;;;;10.68;1.60;;;;;;;;;;5102678;28;20523;-64
2023/03/04 09:03:10;;;;;;;9.45;1.50;;;;;;;;;;5101644;28;20035;-63
2023/03/04 09:05:37;;;;;;;9.57;1.67;;;;;;;;;;5110782;28;20613;-63
2023/03/04 09:08:03;;;;;;;5.80;1.67;;;;;;;;;;5102186;28;20061;-63
2023/03/04 09:10:29;;;;;;;10.65;1.70;;;;;;;;;;5108982;28;20036;-65
2023/03/04 09:12:55;;;;;;;9.45;1.52;;;;;;;;;;5103792;28;20032;-64
2023/03/04 09:15:21;;;;;;;5.63;1.13;;;;;;;;;;5101186;28;20042;-63
2023/03/04 09:17:47;;;;;;;7.53;2.03;;;;;;;;;;5105287;28;20039;-64
2023/03/04 09:20:14;;;;;;;10.32;1.75;;;;;;;;;;5105358;28;20032;-63
2023/03/04 09:22:40;;;;;;;10.85;1.98;;;;;;;;;;5099890;28;20047;-62
2023/03/04 09:25:23;;;;;;;17.38;2.67;;;;;;;;;;5106594;28;20067;-62
2023/03/04 09:27:49;;;;;;;17.02;2.17;;;;;;;;;;5107264;28;20403;-62
2023/03/04 09:30:15;;;;;;;14.57;3.10;;;;;;;;;;5103175;28;20039;-62
2023/03/04 09:32:41;;;;;;;11.77;2.30;;;;;;;;;;5096941;28;20100;-63
2023/03/04 09:35:08;;;;;;;18.60;2.90;;;;;;;;;;5099824;28;20032;-63
2023/03/04 09:37:35;;;;;;;8.82;1.52;;;;;;;;;;5103188;28;20065;-64
2023/03/04 09:40:01;;;;;;;13.20;1.95;;;;;;;;;;5098006;28;20520;-63
2023/03/04 09:42:30;;;;;;;13.77;2.38;;;;;;;;;;5106772;28;20047;-63
2023/03/04 09:44:56;;;;;;;12.32;2.15;;;;;;;;;;5109199;28;20040;-63
2023/03/04 09:47:23;;;;;;;13.10;2.25;;;;;;;;;;5086468;28;20375;-63
2023/03/04 09:49:56;;;;;;;18.38;2.88;;;;;;;;;;5097927;28;20379;-63
2023/03/04 09:52:31;;;;;;;14.38;2.03;;;;;;;;;;5096018;28;20095;-62
2023/03/04 09:55:04;;;;;;;11.98;1.92;;;;;;;;;;5103376;28;20039;-63
2023/03/04 09:57:49;;;;;;;8.60;2.05;;;;;;;;;;5111179;28;20036;-63
2023/03/04 10:00:24;;;;;;;9.88;2.20;;;;;;;;;;5102509;28;20036;-62
2023/03/04 10:03:03;;;;;;;14.07;2.00;;;;;;;;;;5105798;28;20085;-63
2023/03/04 10:05:32;;;;;;;18.63;3.28;;;;;;;;;;5104003;28;20115;-62
2023/03/04 10:08:00;;;;;;;9.60;2.10;;;;;;;;;;5109342;28;20052;-63
2023/03/04 10:10:28;;;;;;;17.17;2.65;;;;;;;;;;5110608;28;20039;-63
2023/03/04 10:12:56;;;;;;;15.13;2.53;;;;;;;;;;5111324;28;20046;-63
2023/03/04 10:15:22;;;;;;;15.02;2.75;;;;;;;;;;5105541;28;20554;-63
2023/03/04 10:17:50;;;;;;;12.32;2.45;;;;;;;;;;5098161;28;20089;-62
2023/03/04 10:20:23;;;;;;;11.07;2.08;;;;;;;;;;5101720;28;20114;-63
2023/03/04 10:22:51;;;;;;;13.02;2.78;;;;;;;;;;5098765;28;20046;-62
2023/03/04 10:25:27;;;;;;;13.98;2.20;;;;;;;;;;5110200;28;20489;-61
2023/03/04 10:27:53;;;;;;;14.40;1.85;;;;;;;;;;5104310;28;20043;-63
2023/03/04 10:30:31;;;;;;;13.55;2.17;;;;;;;;;;5107397;28;20141;-62
2023/03/04 10:32:57;;;;;;;15.40;2.42;;;;;;;;;;5107858;27;20052;-62
2023/03/04 10:35:27;;;;;;;12.82;2.13;;;;;;;;;;5090740;28;20405;-62
2023/03/04 10:37:53;;;;;;;11.77;2.20;;;;;;;;;;5119511;22;20047;-62
2023/03/04 10:40:24;;;;;;;14.52;2.20;;;;;;;;;;5129121;27;20137;-62
2023/03/04 10:42:50;;;;;;;;;;;;;;;;;;5125724;27;20485;-62
2023/03/04 10:45:24;;;;;;;14.00;2.00;;;;;;;;;;5124368;27;19915;-63
2023/03/04 10:47:54;;;;;;;10.65;2.00;;;;;;;;;;5130096;27;20027;-63
2023/03/04 10:50:25;;;;;;;12.80;2.33;;;;;;;;;;5115591;27;20484;-63
2023/03/04 10:52:52;;;;;;;8.27;1.70;;;;;;;;;;5123707;27;20092;-63
2023/03/04 10:55:24;;;;;;;11.15;1.77;;;;;;;;;;5126637;27;20050;-64
2023/03/04 10:57:56;;;;;;;10.77;1.23;;;;;;;;;;5126868;27;20405;-64
2023/03/04 11:00:31;;;;;;;7.05;1.25;;;;;;;;;;5119652;27;20040;-63
2023/03/04 11:03:15;;;;;;;9.80;1.60;;;;;;;;;;5119346;27;20055;-64
2023/03/04 11:05:41;;;;;;;13.65;2.25;;;;;;;;;;5120817;27;20059;-63
2023/03/04 11:08:16;;;;;;;11.10;1.65;;;;;;;;;;5118190;27;20453;-63
2023/03/04 11:10:42;;;;;;;12.10;1.77;;;;;;;;;;5131234;27;20062;-62
2023/03/04 11:13:11;;;;;;;7.78;1.30;;;;;;;;;;5134789;27;20039;-64
2023/03/04 11:15:56;;;;;;;9.70;1.50;;;;;;;;;;5135255;27;20039;-64
2023/03/04 11:18:31;;;;;;;4.32;1.25;;;;;;;;;;5126655;27;20043;-63
2023/03/04 11:20:58;;;;;;;7.03;1.10;;;;;;;;;;5125671;27;20049;-63
2023/03/04 11:23:31;;;;;;;6.95;1.65;;;;;;;;;;5120412;27;20489;-62
2023/03/04 11:26:03;;;;;;;7.03;1.50;;;;;;;;;;5124203;27;20035;-63
2023/03/04 11:28:28;;;;;;;;;;;;;;;;;;5121898;27;20396;-63
2023/03/04 11:30:56;;;;;;;11.20;1.65;;;;;;;;;;5132399;27;19920;-62
2023/03/04 11:33:28;;;;;;;12.23;2.35;;;;;;;;;;5126752;27;20058;-62
2023/03/04 11:35:59;;;;;;;13.10;2.00;;;;;;;;;;5119745;27;20567;-63
2023/03/04 11:38:40;;;;;;;11.80;2.53;;;;;;;;;;5134444;27;20660;-63
2023/03/04 11:41:06;;;;;;;;;;;;;;;;;;5147640;27;20030;-63
2023/03/04 11:43:32;;;;;;;14.50;2.30;;;;;;;;;;5152160;27;19915;-63
2023/03/04 11:46:06;;;;;;;14.32;2.38;;;;;;;;;;5147524;27;20045;-63
2023/03/04 11:48:32;;;;;;;14.82;2.28;;;;;;;;;;5145917;27;20449;-63
2023/03/04 11:51:18;;;;;;;13.00;2.25;;;;;;;;;;5141382;27;20030;-63
2023/03/04 11:54:02;;;;;;;17.98;2.70;;;;;;;;;;5152374;27;20113;-63
2023/03/04 11:56:31;;;;;;;11.90;2.40;;;;;;;;;;5153193;27;20071;-63
2023/03/04 11:59:03;;;;;;;11.30;2.80;;;;;;;;;;5153457;27;20084;-63
2023/03/04 12:01:43;;;;;;;16.58;2.80;;;;;;;;;;5152800;27;20034;-62
2023/03/04 12:04:18;;;;;;;14.63;2.67;;;;;;;;;;5149109;27;20049;-62
2023/03/04 12:07:07;;;;;;;18.58;2.90;;;;;;;;;;5141559;27;20026;-63
2023/03/04 12:09:33;;;;;;;5.68;1.90;;;;;;;;;;5102608;27;20055;-63
2023/03/04 12:12:08;;;;;;;10.63;2.00;;;;;;;;;;5150524;27;20083;-63
2023/03/04 12:14:47;;;;;;;8.40;1.83;;;;;;;;;;5146977;27;20429;-63
2023/03/04 12:17:13;;;;;;;11.40;1.90;;;;;;;;;;5139570;27;20043;-63
2023/03/04 12:19:39;;;;;;;14.63;2.40;;;;;;;;;;5144110;27;20042;-63
2023/03/04 12:22:24;;;;;;;9.20;2.17;;;;;;;;;;5151810;27;20030;-63
2023/03/04 12:24:50;;;;;;;10.60;1.77;;;;;;;;;;5147677;27;20539;-63
2023/03/04 12:27:28;;;;;;;9.80;2.10;;;;;;;;;;5151983;27;20065;-63
2023/03/04 12:29:54;;;;;;;15.93;2.25;;;;;;;;;;5153018;27;20126;-62
2023/03/04 12:32:29;;;;;;;15.52;2.15;;;;;;;;;;5146711;27;20046;-63
2023/03/04 12:35:04;;;;;;;17.30;2.55;;;;;;;;;;5147792;27;20373;-63
2023/03/04 12:37:49;;;;;;;16.45;2.22;;;;;;;;;;5154323;27;20038;-63
2023/03/04 12:40:15;;;;;;;11.20;2.13;;;;;;;;;;5140620;27;20072;-62
2023/03/04 12:43:01;;;;;;;7.63;1.60;;;;;;;;;;5149847;27;20035;-63
2023/03/04 12:45:37;;;;;;;14.15;2.30;;;;;;;;;;5144271;27;20041;-63
2023/03/04 12:48:06;;;;;;;14.80;1.83;;;;;;;;;;5138195;27;20387;-63
2023/03/04 12:50:35;;;;;;;10.38;1.40;;;;;;;;;;5138269;27;20126;-63
2023/03/04 12:53:19;;;;;;;8.18;1.70;;;;;;;;;;5151059;27;20030;-63
2023/03/04 12:55:46;;;;;;;8.40;1.88;;;;;;;;;;5144071;27;20040;-63
2023/03/04 12:58:24;;;;;;;13.00;2.20;;;;;;;;;;5153944;27;20110;-63
2023/03/04 13:01:01;;;;;;;13.90;2.80;;;;;;;;;;5142669;27;20039;-63
2023/03/04 13:03:33;;;;;;;8.48;1.90;;;;;;;;;;5137054;27;20062;-63
2023/03/04 13:06:05;;;;;;;12.02;2.25;;;;;;;;;;5144284;27;20106;-63
2023/03/04 13:12:04;;;;;;;8.68;2.13;;;7.60;99.90;;;;;;5105361;27;20337;-63
2023/03/04 13:14:31;;;;;;;12.45;2.17;;;7.40;99.90;;;;;;5103167;28;20051;-63
2023/03/04 13:17:00;;;;;;;16.95;2.67;;;7.40;99.90;;;;;;5110036;28;20058;-63
2023/03/04 13:19:54;;;;;;;11.25;2.00;;;7.40;99.90;;;;;;5083038;28;20039;-63
2023/03/04 13:22:32;;;;;;;10.60;2.30;;;7.40;99.90;;;;;;5082848;28;20662;-63
2023/03/04 13:25:01;;;;;;;10.68;2.05;;;7.40;99.90;;;;;;5081494;28;20097;-63
2023/03/04 13:27:48;;;;;;;12.32;2.22;;;7.40;99.90;;;;;;5082690;28;20049;-63
2023/03/04 13:30:42;;;;;;;12.20;2.65;;;7.40;99.90;;;;;;5086619;28;20115;-63
2023/03/04 13:33:12;;;;;;;15.85;2.85;;;7.50;99.90;;;;;;5071165;28;20128;-63
2023/03/04 13:36:00;;;;;;;13.15;2.42;;;7.50;99.90;;;;;;5083982;28;20040;-63
2023/03/04 13:38:38;;;;;;;14.65;2.38;;;7.40;99.90;;;;;;5081511;28;20068;-63
2023/03/04 13:41:18;;;;;;;11.45;2.15;;;7.40;99.90;;;;;;5078288;28;20052;-63
2023/03/04 13:43:55;;;;;;;12.15;2.42;;;7.30;99.90;;;;;;5079054;28;20098;-63
2023/03/04 13:46:23;;;;;;;5.85;1.63;;;7.20;99.90;;;;;;5083160;28;20394;-63
2023/03/04 13:48:49;;;;;;;13.75;2.45;;;7.20;99.90;;;;;;5077939;28;20078;-63
2023/03/04 13:51:28;;;;;;;8.52;1.73;;;7.10;99.90;;;;;;5087295;28;20127;-64
2023/03/04 13:53:59;;;;;;;6.07;1.70;;;7.10;99.90;;;;;;5087117;28;20047;-63
2023/03/04 13:56:34;;;;;;;10.35;1.67;;;7.10;99.90;;;;;;5089669;28;20589;-63
2023/03/04 13:59:08;;;;;;;8.25;1.77;;;7.00;99.90;;;;;;5088730;28;20055;-63
2023/03/04 14:01:34;;;;;;;13.23;2.30;;;7.00;99.90;;;;;;5080824;28;21273;-63
2023/03/04 14:04:08;;;;;;;15.15;2.05;;;7.00;99.90;;;;;;5082635;28;20109;-63
2023/03/04 14:06:34;;;;;;;10.35;1.83;;;7.00;99.90;;;;;;5084625;28;20040;-63
2023/03/04 14:09:16;;;;;;;8.85;2.28;;;7.00;99.90;;;;;;5077959;28;20036;-63
2023/03/04 14:11:42;;;;;;;17.42;3.17;;;7.00;99.90;;;;;;5082120;28;20396;-63
2023/03/04 14:14:14;;;;;;;10.63;2.28;;;7.10;99.90;;;;;;5077484;28;20102;-64
2023/03/04 14:16:46;;;;;;;12.88;2.70;;;7.10;99.90;;;;;;5076914;28;20039;-64
2023/03/04 14:19:20;;;;;;;6.05;1.67;;;7.00;99.90;;;;;;5078977;28;20040;-64
2023/03/04 14:21:46;;;;;;;9.98;1.55;;;7.00;99.90;;;;;;5073089;28;20487;-64
2023/03/04 14:24:18;;;;;;;5.15;1.60;;;6.80;99.90;;;;;;5063025;28;20048;-64
2023/03/04 14:26:44;;;;;;;13.35;2.00;;;6.80;99.90;;;;;;5067477;28;20044;-64
2023/03/04 14:29:28;;;;;;;12.68;1.88;;;6.70;99.90;;;;;;5062322;28;20042;-64
2023/03/04 14:31:54;;;;;;;11.98;2.10;;;6.60;99.90;;;;;;5061453;28;20049;-64
2023/03/04 14:34:38;;;;;;;12.75;2.30;;;6.70;99.90;;;;;;5064366;28;20165;-64